Time;durP1;ratioP1;P1;durP2;ratioP2;P2;SDS_P1;SDS_P2;PMS_P1;PMS_P2;Temp;Humidity;BMP_temperature;BMP_pressure;BME280_temperature;BME280_humidity;BME280_pressure;Samples;Min_cycle;Max_cycle;Signal;HPM_P1;HPM_P2
2022/11/24 00:01:15;;;;;;;1.07;0.90;;;;;;;9.46;100.00;99034.47;5095798;28;20740;-76
2022/11/24 00:03:42;;;;;;;0.80;0.80;;;;;;;9.49;100.00;99038.81;5096498;28;20667;-77
2022/11/24 00:06:11;;;;;;;0.97;0.90;;;;;;;9.55;100.00;99036.25;5096655;28;20229;-77
2022/11/24 00:08:40;;;;;;;0.97;0.70;;;;;;;9.57;100.00;99043.13;5094811;28;20212;-76
2022/11/24 00:11:08;;;;;;;0.83;0.73;;;;;;;9.64;100.00;99038.84;5095878;28;20622;-77
2022/11/24 00:13:37;;;;;;;0.70;0.70;;;;;;;9.64;100.00;99062.13;5095872;28;20194;-77
2022/11/24 00:16:07;;;;;;;0.87;0.80;;;;;;;9.72;100.00;99063.88;5098747;28;20205;-76
2022/11/24 00:18:34;;;;;;;0.90;0.70;;;;;;;9.68;100.00;99062.13;5096034;28;20209;-76
2022/11/24 00:21:01;;;;;;;0.70;0.70;;;;;;;9.38;100.00;99042.22;5096518;28;20206;-76
2022/11/24 00:23:29;;;;;;;0.87;0.80;;;;;;;9.53;100.00;99056.06;5060318;28;20206;-76
2022/11/24 00:25:56;;;;;;;0.80;0.70;;;;;;;9.64;100.00;99069.88;5096857;28;20214;-76
2022/11/24 00:28:22;;;;;;;1.13;0.87;;;;;;;9.66;100.00;99074.22;5096389;28;20255;-76
2022/11/24 00:30:49;;;;;;;1.50;0.90;;;;;;;9.65;100.00;99079.38;5096623;28;20198;-75
2022/11/24 00:33:16;;;;;;;0.90;0.80;;;;;;;9.58;100.00;99080.22;5096608;28;20266;-76
2022/11/24 00:35:43;;;;;;;1.27;0.83;;;;;;;9.60;100.00;99078.50;5096335;28;20202;-76
2022/11/24 00:38:09;;;;;;;1.17;0.83;;;;;;;9.54;100.00;99070.72;5096321;28;20202;-75
2022/11/24 00:40:38;;;;;;;1.37;0.90;;;;;;;9.21;100.00;99007.69;5097755;28;20194;-76
2022/11/24 00:43:04;;;;;;;1.80;0.90;;;;;;;9.53;100.00;99066.41;5096338;28;20193;-76
2022/11/24 00:45:31;;;;;;;0.83;0.80;;;;;;;9.49;100.00;99060.34;5045360;28;20217;-77
2022/11/24 00:47:58;;;;;;;0.63;0.60;;;;;;;9.31;100.00;99040.47;5096894;28;20197;-76
2022/11/24 00:50:24;;;;;;;0.70;0.70;;;;;;;9.49;100.00;99060.34;5060276;28;20202;-76
2022/11/24 00:52:51;;;;;;;2.63;1.67;;;;;;;9.48;100.00;99068.13;5046109;28;20227;-75
2022/11/24 00:55:18;;;;;;;1.47;0.90;;;;;;;9.45;100.00;99059.47;5036747;28;20203;-76
2022/11/24 00:57:46;;;;;;;1.10;0.83;;;;;;;9.48;100.00;99062.97;5055922;28;20705;-75
2022/11/24 01:00:14;;;;;;;2.40;1.67;;;;;;;9.40;100.00;99044.81;5056174;28;20195;-76
2022/11/24 01:02:40;;;;;;;1.67;0.90;;;;;;;9.33;100.00;99064.63;5059091;28;20206;-76
2022/11/24 01:05:08;;;;;;;1.10;0.77;;;;;;;9.30;100.00;99068.94;5061736;28;20202;-75
2022/11/24 01:07:35;;;;;;;0.70;0.70;;;;;;;9.19;100.00;99040.44;5023005;28;20222;-76
2022/11/24 01:10:02;;;;;;;0.73;0.70;;;;;;;9.27;100.00;99054.28;5059610;28;20610;-76
2022/11/24 01:12:29;;;;;;;0.73;0.70;;;;;;;9.30;100.00;99048.25;5058992;28;20210;-75
2022/11/24 01:14:58;;;;;;;1.17;0.80;;;;;;;9.50;100.00;99062.09;5060416;28;20203;-76
2022/11/24 01:17:25;;;;;;;0.67;0.67;;;;;;;9.46;100.00;99068.97;5059339;28;20206;-76
2022/11/24 01:19:51;;;;;;;1.03;0.80;;;;;;;9.44;100.00;99067.25;5058681;28;20206;-76
2022/11/24 01:22:18;;;;;;;2.00;1.00;;;;;;;9.28;100.00;99066.31;5059272;28;20202;-76
2022/11/24 01:24:45;;;;;;;1.20;0.80;;;;;;;9.35;100.00;99073.25;5058647;28;20203;-76
2022/11/24 01:27:12;;;;;;;0.93;0.80;;;;;;;9.32;100.00;99073.25;5058883;28;20811;-76
2022/11/24 01:29:39;;;;;;;1.13;0.80;;;;;;;9.39;100.00;99063.78;5058003;28;20203;-76
2022/11/24 01:32:07;;;;;;;1.80;0.93;;;;;;;9.23;100.00;99060.28;5058981;28;20216;-76
2022/11/24 01:34:34;;;;;;;1.43;0.93;;;;;;;9.30;100.00;99064.63;5059040;28;20199;-76
2022/11/24 01:37:00;;;;;;;2.10;1.00;;;;;;;9.33;100.00;99059.47;5058945;28;20202;-75
2022/11/24 01:39:27;;;;;;;0.80;0.60;;;;;;;9.35;100.00;99057.72;5058998;28;20192;-76
2022/11/24 01:41:54;;;;;;;1.70;0.90;;;;;;;9.26;100.00;99062.88;5058382;28;20256;-75
2022/11/24 01:44:23;;;;;;;0.83;0.67;;;;;;;9.34;100.00;99065.50;5060049;28;20199;-75
2022/11/24 01:46:55;;;;;;;1.67;0.97;;;;;;;9.19;100.00;99062.84;5060683;28;20284;-76
2022/11/24 01:49:27;;;;;;;1.27;0.83;;;;;;;9.21;100.00;99063.72;5060156;28;20630;-77
2022/11/24 01:51:58;;;;;;;1.87;1.00;;;;;;;9.25;100.00;99055.97;5056691;28;20210;-75
2022/11/24 01:54:29;;;;;;;2.33;1.10;;;;;;;9.30;100.00;99064.63;5058455;28;20227;-74
2022/11/24 01:57:01;;;;;;;1.00;0.90;;;;;;;9.29;100.00;99062.88;5056860;28;20200;-76
2022/11/24 01:59:28;;;;;;;1.80;1.00;;;;;;;9.22;100.00;99065.44;5057447;28;20199;-75
2022/11/24 02:01:57;;;;;;;2.50;1.10;;;;;;;9.16;100.00;99068.88;5057587;28;20248;-75
2022/11/24 02:07:06;;;;;;;1.27;1.00;;;;;;;9.04;100.00;99053.31;5155224;27;20558;-75
2022/11/24 02:09:40;;;;;;;0.60;0.60;;;;;;;9.12;100.00;99064.56;5108747;28;20591;-77
2022/11/24 02:12:07;;;;;;;1.37;1.00;;;;;;;8.94;100.00;99049.81;5108778;28;20212;-75
2022/11/24 02:14:38;;;;;;;1.87;1.00;;;;;;;8.83;100.00;99030.81;5128626;27;20579;-76
2022/11/24 02:17:05;;;;;;;2.37;1.13;;;;;;;8.98;100.00;99060.16;5144266;27;20192;-76
2022/11/24 02:19:43;;;;;;;1.87;1.03;;;;;;;8.78;100.00;99036.78;5145809;27;20197;-76
2022/11/24 02:22:18;;;;;;;1.03;0.90;;;;;;;9.02;100.00;99057.63;5144369;27;20211;-76
2022/11/24 02:24:50;;;;;;;1.70;1.10;;;;;;;8.99;100.00;99060.16;5143984;27;20203;-76
2022/11/24 02:27:19;;;;;;;1.53;1.10;;;;;;;8.85;100.00;99044.59;5124243;27;20675;-76
2022/11/24 02:29:46;;;;;;;0.97;0.90;;;;;;;8.94;100.00;99056.72;5144797;27;20201;-75
2022/11/24 02:32:14;;;;;;;1.50;0.90;;;;;;;9.08;100.00;99067.97;5101455;27;20938;-76
2022/11/24 02:34:40;;;;;;;1.47;0.90;;;;;;;9.08;100.00;99036.09;5143170;27;20286;-76
2022/11/24 02:37:07;;;;;;;2.07;1.00;;;;;;;8.96;100.00;99054.97;5144766;27;20205;-75
2022/11/24 02:39:34;;;;;;;2.47;1.10;;;;;;;9.03;100.00;99042.94;5097877;27;20195;-75
2022/11/24 02:42:04;;;;;;;2.00;1.37;;;;;;;9.13;100.00;99048.16;5091287;27;20211;-75
2022/11/24 02:44:38;;;;;;;1.37;0.97;;;;;;;9.15;100.00;99069.72;5145845;27;20687;-75
2022/11/24 02:47:06;;;;;;;1.23;0.90;;;;;;;9.24;100.00;99067.16;5144693;27;20670;-77
2022/11/24 02:49:33;;;;;;;1.77;1.00;;;;;;;9.22;100.00;99070.63;5144340;27;20207;-76
2022/11/24 02:52:00;;;;;;;1.53;1.00;;;;;;;9.26;100.00;99070.66;5143347;27;20219;-75
2022/11/24 02:54:27;;;;;;;1.40;0.97;;;;;;;9.28;100.00;99070.63;5107898;27;20200;-75
2022/11/24 02:56:53;;;;;;;1.90;1.30;;;;;;;9.23;100.00;99067.19;5143999;27;20649;-75
2022/11/24 02:59:20;;;;;;;2.13;1.10;;;;;;;8.98;100.00;99071.38;5144336;27;20196;-76
2022/11/24 03:01:48;;;;;;;2.20;1.10;;;;;;;9.00;100.00;99064.47;5143920;27;20193;-76
2022/11/24 03:04:15;;;;;;;2.00;1.00;;;;;;;9.06;100.00;99064.50;5142944;27;20219;-76
2022/11/24 03:06:42;;;;;;;1.70;0.97;;;;;;;9.03;100.00;99058.47;5143821;27;20749;-76
2022/11/24 03:09:09;;;;;;;1.83;1.03;;;;;;;9.07;100.00;99078.31;5144234;27;20224;-75
2022/11/24 03:11:36;;;;;;;3.07;1.13;;;;;;;9.14;100.00;99086.09;5142841;27;20520;-76
2022/11/24 03:14:03;;;;;;;1.30;0.90;;;;;;;9.12;100.00;99090.41;5136209;27;20219;-76
2022/11/24 03:16:30;;;;;;;1.70;0.87;;;;;;;9.18;100.00;99090.44;5125308;27;20236;-77
2022/11/24 03:18:58;;;;;;;2.00;1.10;;;;;;;9.16;100.00;99094.75;5114241;28;20305;-77
2022/11/24 03:21:25;;;;;;;1.83;1.10;;;;;;;9.06;100.00;99095.53;5114429;28;20220;-75
2022/11/24 03:23:52;;;;;;;0.97;0.90;;;;;;;9.15;100.00;99092.13;5095688;27;20658;-77
2022/11/24 03:26:21;;;;;;;1.67;1.10;;;;;;;9.11;100.00;99104.19;5124995;27;20201;-76
2022/11/24 03:28:48;;;;;;;2.23;1.20;;;;;;;9.10;100.00;99112.78;5127129;27;20208;-76
2022/11/24 03:31:15;;;;;;;1.77;1.00;;;;;;;9.03;100.00;99100.69;5127271;27;20201;-76
2022/11/24 03:33:41;;;;;;;2.03;1.10;;;;;;;9.15;100.00;99116.28;5124660;27;20197;-76
2022/11/24 03:36:10;;;;;;;1.07;0.90;;;;;;;9.05;100.00;99122.25;5127328;27;20650;-76
2022/11/24 03:38:37;;;;;;;1.37;0.90;;;;;;;9.02;100.00;99119.66;5127440;27;20204;-76
2022/11/24 03:41:04;;;;;;;1.00;0.80;;;;;;;9.04;100.00;99117.06;5125112;27;20676;-76
2022/11/24 03:43:32;;;;;;;1.30;0.90;;;;;;;8.84;100.00;99094.56;5127971;27;20629;-76
2022/11/24 03:45:58;;;;;;;1.63;0.97;;;;;;;8.98;100.00;99120.50;5120546;27;20206;-75
2022/11/24 03:48:25;;;;;;;1.13;0.77;;;;;;;9.01;100.00;99112.75;5125781;27;20205;-76
2022/11/24 03:50:54;;;;;;;1.50;0.83;;;;;;;8.85;100.00;99095.41;5128469;27;20197;-76
2022/11/24 03:53:23;;;;;;;2.07;1.03;;;;;;;8.86;100.00;99118.69;5085668;27;20288;-75
2022/11/24 03:55:50;;;;;;;1.43;0.90;;;;;;;8.85;100.00;99113.50;5128995;27;20224;-76
2022/11/24 03:58:16;;;;;;;1.93;1.00;;;;;;;8.90;100.00;99106.66;5129192;27;20216;-76
2022/11/24 04:00:43;;;;;;;1.50;0.90;;;;;;;8.65;100.00;99097.00;5068004;27;20189;-76
2022/11/24 04:03:10;;;;;;;2.43;1.30;;;;;;;8.54;100.00;99078.00;5129685;27;20622;-77
2022/11/24 04:05:37;;;;;;;1.17;0.90;;;;;;;8.79;100.00;99116.94;5130472;27;20617;-77
2022/11/24 04:08:04;;;;;;;1.37;1.00;;;;;;;8.66;100.00;99114.25;5129529;27;20674;-79
2022/11/24 04:10:35;;;;;;;0.90;0.90;;;;;;;8.76;100.00;99111.75;5129643;27;20211;-76
2022/11/24 04:13:01;;;;;;;1.07;1.07;;;;;;;8.71;100.00;99117.72;5076220;27;20239;-76
2022/11/24 04:15:28;;;;;;;1.37;1.10;;;;;;;8.79;100.00;99129.84;5128528;27;20539;-77
2022/11/24 04:17:57;;;;;;;0.80;0.80;;;;;;;8.65;100.00;99133.19;5091592;27;20249;-76
2022/11/24 04:20:24;;;;;;;0.70;0.70;;;;;;;8.71;100.00;99131.50;5128608;27;20193;-77
2022/11/24 04:22:51;;;;;;;2.27;1.50;;;;;;;8.64;100.00;99127.16;5128903;27;20235;-71
2022/11/24 04:25:18;;;;;;;1.23;0.90;;;;;;;8.76;100.00;99131.56;5127060;27;20220;-78
2022/11/24 04:27:50;;;;;;;1.20;1.00;;;;;;;8.88;100.00;99144.56;5129061;27;20648;-75
2022/11/24 04:30:18;;;;;;;1.47;1.10;;;;;;;8.73;100.00;99139.28;5084156;27;20915;-75
2022/11/24 04:32:45;;;;;;;1.90;1.20;;;;;;;8.61;100.00;99137.47;5130105;27;20192;-76
2022/11/24 04:35:12;;;;;;;2.63;1.67;;;;;;;8.63;100.00;99150.41;5128507;27;20215;-76
2022/11/24 04:37:39;;;;;;;0.90;0.90;;;;;;;8.63;100.00;99143.53;5127599;27;20232;-75
2022/11/24 04:40:07;;;;;;;2.67;1.20;;;;;;;8.48;100.00;99121.88;5128658;27;20193;-76
2022/11/24 04:42:34;;;;;;;1.50;1.10;;;;;;;8.69;100.00;99151.31;5128035;27;20193;-76
2022/11/24 04:45:03;;;;;;;1.80;1.33;;;;;;;8.72;100.00;99155.63;5123365;27;20208;-76
2022/11/24 04:47:29;;;;;;;1.30;0.90;;;;;;;9.02;100.00;99150.69;5130480;27;20444;-71
2022/11/24 04:49:56;;;;;;;2.03;0.90;;;;;;;9.11;100.00;99161.06;5128050;27;20208;-73
2022/11/24 04:52:25;;;;;;;1.07;0.90;;;;;;;9.11;100.00;99166.25;5128424;27;20197;-78
2022/11/24 04:54:52;;;;;;;1.47;0.80;;;;;;;9.06;100.00;99173.09;5127381;27;20196;-78
2022/11/24 04:57:20;;;;;;;0.93;0.73;;;;;;;9.11;100.00;99186.94;5128570;27;20221;-78
2022/11/24 04:59:48;;;;;;;0.87;0.70;;;;;;;9.07;100.00;99189.47;5128630;27;20193;-78
2022/11/24 05:02:16;;;;;;;0.50;0.50;;;;;;;8.96;100.00;99195.44;5126350;27;20204;-78
2022/11/24 05:04:43;;;;;;;1.37;0.90;;;;;;;9.18;100.00;99178.34;5129635;27;20564;-79
2022/11/24 05:07:12;;;;;;;2.50;1.73;;;;;;;9.18;100.00;99183.53;5128701;27;20205;-78
2022/11/24 05:10:33;;;;;;;2.00;1.00;;;;;;;8.99;100.00;99166.16;5128400;27;20208;-78
2022/11/24 05:12:29;;;;;;;0.87;0.83;;;;;;;9.12;100.00;99196.44;5127706;27;20196;-78
2022/11/24 05:14:57;;;;;;;1.53;1.07;;;;;;;9.24;100.00;99191.31;5128276;27;20193;-79
2022/11/24 05:17:28;;;;;;;0.70;0.70;;;;;;;9.04;100.00;99167.06;5128594;27;20216;-76
2022/11/24 05:19:54;;;;;;;1.00;0.80;;;;;;;9.13;100.00;99210.22;5125266;27;20278;-77
2022/11/24 05:22:21;;;;;;;1.37;0.90;;;;;;;9.05;100.00;99212.75;5083023;27;20197;-77
2022/11/24 05:24:48;;;;;;;0.83;0.70;;;;;;;9.05;100.00;99217.94;5125190;27;20205;-78
2022/11/24 05:27:15;;;;;;;0.80;0.80;;;;;;;8.97;100.00;99214.41;5127250;27;20207;-79
2022/11/24 05:29:41;;;;;;;0.80;0.80;;;;;;;8.72;100.00;99208.19;5089307;27;20276;-77
2022/11/24 05:32:08;;;;;;;1.10;1.00;;;;;;;8.76;100.00;99216.84;5105489;27;20653;-77
2022/11/24 05:34:37;;;;;;;1.10;1.00;;;;;;;8.83;100.00;99223.78;5123417;27;20198;-78
2022/11/24 05:37:03;;;;;;;1.23;1.23;;;;;;;8.61;100.00;99203.78;5126237;27;20231;-79
2022/11/24 05:39:31;;;;;;;1.80;1.20;;;;;;;8.83;100.00;99223.78;5128079;27;20196;-77
2022/11/24 05:41:58;;;;;;;1.10;0.90;;;;;;;8.84;100.00;99217.78;5129288;27;20657;-78
2022/11/24 05:44:25;;;;;;;1.47;1.10;;;;;;;8.85;100.00;99219.47;5131020;27;20204;-78
2022/11/24 05:46:52;;;;;;;1.87;1.00;;;;;;;8.84;100.00;99233.28;5129409;27;20201;-79
2022/11/24 05:49:18;;;;;;;0.80;0.80;;;;;;;8.87;100.00;99228.13;5128086;27;20193;-79
2022/11/24 05:51:46;;;;;;;1.23;1.10;;;;;;;8.77;100.00;99234.06;5127400;27;20206;-79
2022/11/24 05:54:13;;;;;;;1.60;1.10;;;;;;;8.67;100.00;99219.34;5127757;27;20624;-80
2022/11/24 05:56:40;;;;;;;1.43;1.33;;;;;;;8.70;100.00;99229.72;5128379;27;20228;-80
2022/11/24 05:59:07;;;;;;;7.97;5.23;;;;;;;8.66;100.00;99231.41;5127511;27;20203;-79
2022/11/24 06:01:33;;;;;;;0.77;0.77;;;;;;;8.71;100.00;99234.00;5127933;27;20201;-79
2022/11/24 06:04:00;;;;;;;0.80;0.80;;;;;;;8.73;100.00;99242.66;5128051;28;20209;-78
2022/11/24 06:06:27;;;;;;;1.27;1.10;;;;;;;8.59;100.00;99241.66;5126725;28;20224;-79
2022/11/24 06:08:55;;;;;;;0.70;0.70;;;;;;;8.57;100.00;99241.63;5128108;28;20201;-79
2022/11/24 06:11:22;;;;;;;0.97;0.87;;;;;;;8.51;100.00;99238.13;5127368;28;20205;-79
2022/11/24 06:13:49;;;;;;;0.80;0.80;;;;;;;8.39;100.00;99255.25;5126929;28;20197;-79
2022/11/24 06:16:15;;;;;;;0.80;0.80;;;;;;;8.41;100.00;99250.97;5129092;28;20220;-78
2022/11/24 06:18:42;;;;;;;1.00;0.90;;;;;;;8.29;100.00;99261.16;5118761;28;20192;-75
2022/11/24 06:21:09;;;;;;;1.63;1.53;;;;;;;8.37;100.00;99269.88;5071210;28;20210;-77
2022/11/24 06:23:36;;;;;;;1.30;1.20;;;;;;;8.32;100.00;99270.66;5109285;28;20343;-76
2022/11/24 06:26:04;;;;;;;0.90;0.90;;;;;;;7.87;100.00;99191.84;5107242;28;20568;-77
2022/11/24 06:28:31;;;;;;;0.80;0.80;;;;;;;8.15;100.00;99274.72;5120965;28;20204;-80
2022/11/24 06:31:01;;;;;;;0.70;0.70;;;;;;;8.27;100.00;99280.91;5112687;28;20212;-78
2022/11/24 06:33:31;;;;;;;1.60;1.00;;;;;;;8.02;100.00;99247.06;5104333;28;20270;-79
2022/11/24 06:36:01;;;;;;;1.03;0.87;;;;;;;8.29;100.00;99280.94;5114257;28;20288;-80
2022/11/24 06:38:28;;;;;;;1.50;1.40;;;;;;;8.21;100.00;99282.53;5119987;28;20194;-79
2022/11/24 06:40:59;;;;;;;3.57;1.83;;;;;;;8.28;100.00;99287.81;5109085;28;20208;-78
2022/11/24 06:43:28;;;;;;;1.60;1.17;;;;;;;7.79;100.00;99210.63;5111072;28;20280;-76
2022/11/24 06:45:55;;;;;;;1.27;1.00;;;;;;;8.27;100.00;99299.00;5110304;28;20669;-77
2022/11/24 06:48:23;;;;;;;1.50;1.10;;;;;;;7.99;100.00;99253.91;5110623;28;20197;-78
2022/11/24 06:50:50;;;;;;;1.27;1.10;;;;;;;8.04;100.00;99269.44;5108953;28;20205;-76
2022/11/24 06:53:17;;;;;;;0.90;0.90;;;;;;;8.40;100.00;99311.22;5100708;28;20201;-77
2022/11/24 06:55:45;;;;;;;0.63;0.63;;;;;;;8.20;100.00;99293.75;5114571;28;20597;-79
2022/11/24 06:58:11;;;;;;;0.90;0.90;;;;;;;8.29;100.00;99319.69;5114367;28;20229;-76
2022/11/24 07:00:40;;;;;;;1.37;0.90;;;;;;;8.32;100.00;99315.41;5101782;28;20202;-76
2022/11/24 07:03:06;;;;;;;2.20;1.77;;;;;;;8.31;100.00;99313.69;5112626;28;20197;-76
2022/11/24 07:05:33;;;;;;;1.20;0.90;;;;;;;8.25;100.00;99318.75;5113935;28;20240;-77
2022/11/24 07:08:00;;;;;;;1.73;1.63;;;;;;;8.24;100.00;99321.34;5100574;28;20193;-80
2022/11/24 07:10:27;;;;;;;2.50;1.87;;;;;;;8.30;100.00;99332.63;5114093;28;20277;-81
2022/11/24 07:12:53;;;;;;;1.03;0.90;;;;;;;8.15;100.00;99306.59;5113987;28;20197;-78
2022/11/24 07:15:20;;;;;;;0.90;0.80;;;;;;;8.36;100.00;99332.69;5113832;28;20212;-78
2022/11/24 07:17:48;;;;;;;3.20;2.40;;;;;;;8.46;100.00;99343.97;5114091;28;20228;-78
2022/11/24 07:20:16;;;;;;;2.00;1.67;;;;;;;8.38;100.00;99336.16;5114225;28;20773;-78
2022/11/24 07:22:42;;;;;;;2.10;1.50;;;;;;;8.37;100.00;99324.09;5113780;28;20204;-77
2022/11/24 07:25:09;;;;;;;1.00;0.90;;;;;;;8.61;100.00;99345.88;5110710;28;20205;-76
2022/11/24 07:27:37;;;;;;;0.93;0.83;;;;;;;8.63;100.00;99357.13;5102295;28;20205;-78
2022/11/24 07:30:04;;;;;;;2.27;2.07;;;;;;;9.13;100.00;99352.44;5099112;28;20232;-77
2022/11/24 07:32:31;;;;;;;1.10;1.00;;;;;;;8.87;100.00;99362.53;5112219;28;20193;-78
2022/11/24 07:34:59;;;;;;;1.40;1.30;;;;;;;8.73;100.00;99364.09;5111524;28;20741;-78
2022/11/24 07:37:27;;;;;;;0.83;0.80;;;;;;;8.55;100.00;99359.59;5113672;28;20224;-78
2022/11/24 07:39:53;;;;;;;0.83;0.83;;;;;;;8.53;100.00;99355.25;5113706;28;20692;-78
2022/11/24 07:42:20;;;;;;;3.33;1.97;;;;;;;8.53;100.00;99355.25;5113733;28;20212;-78
2022/11/24 07:44:47;;;;;;;0.80;0.80;;;;;;;8.49;100.00;99348.34;5113351;28;20194;-78
2022/11/24 07:47:14;;;;;;;1.37;0.97;;;;;;;8.37;100.00;99347.34;5100504;28;20209;-77
2022/11/24 07:49:40;;;;;;;1.50;0.90;;;;;;;8.33;100.00;99347.28;5110417;28;20209;-78
2022/11/24 07:52:09;;;;;;;1.40;1.30;;;;;;;8.43;100.00;99339.66;5077662;28;20209;-77
2022/11/24 07:54:35;;;;;;;1.40;1.07;;;;;;;8.41;100.00;99341.38;5113502;28;20197;-78
2022/11/24 07:57:02;;;;;;;0.73;0.73;;;;;;;8.50;100.00;99350.06;5113542;28;20216;-78
2022/11/24 07:59:29;;;;;;;0.70;0.70;;;;;;;8.05;100.00;99270.31;5075582;28;20209;-78
2022/11/24 08:01:56;;;;;;;2.17;2.07;;;;;;;8.42;100.00;99345.66;5101542;28;20208;-78
2022/11/24 08:04:22;;;;;;;2.40;2.20;;;;;;;8.32;100.00;99330.91;5113236;28;20220;-77
2022/11/24 08:06:49;;;;;;;1.53;1.00;;;;;;;8.56;100.00;99342.41;5077107;28;20261;-78
2022/11/24 08:09:17;;;;;;;0.73;0.73;;;;;;;8.64;100.00;99343.31;5113818;28;20201;-78
2022/11/24 08:11:44;;;;;;;1.33;1.00;;;;;;;8.60;100.00;99349.31;5112738;28;20647;-77
2022/11/24 08:14:11;;;;;;;2.13;1.20;;;;;;;8.63;100.00;99352.81;5113038;28;20737;-77
2022/11/24 08:16:38;;;;;;;0.90;0.90;;;;;;;8.63;100.00;99354.53;5109730;28;20617;-77
2022/11/24 08:19:05;;;;;;;2.53;2.20;;;;;;;8.67;100.00;99362.31;5073625;28;20507;-77
2022/11/24 08:21:32;;;;;;;1.87;1.00;;;;;;;8.67;100.00;99361.47;5108053;28;20265;-76
2022/11/24 08:23:59;;;;;;;3.70;1.80;;;;;;;8.68;100.00;99355.44;5110649;28;20352;-75
2022/11/24 08:26:27;;;;;;;0.63;0.63;;;;;;;8.54;100.00;99344.94;5112488;28;20214;-75
2022/11/24 08:28:55;;;;;;;0.70;0.70;;;;;;;8.67;100.00;99364.06;5112491;28;20677;-76
2022/11/24 08:31:23;;;;;;;2.47;1.47;;;;;;;8.73;100.00;99358.94;5112793;28;20656;-75
2022/11/24 08:33:50;;;;;;;1.93;1.00;;;;;;;8.76;100.00;99361.56;5112239;28;20202;-75
2022/11/24 08:36:18;;;;;;;2.10;1.07;;;;;;;8.86;100.00;99365.97;5112504;28;20588;-78
2022/11/24 08:38:47;;;;;;;1.20;0.73;;;;;;;8.76;100.00;99343.47;5112313;28;20229;-78
2022/11/24 08:41:16;;;;;;;2.50;1.23;;;;;;;8.83;100.00;99355.59;5112382;28;20586;-78
2022/11/24 08:43:44;;;;;;;1.07;1.07;;;;;;;8.72;100.00;99331.34;5112632;28;20206;-78
2022/11/24 08:46:12;;;;;;;0.80;0.80;;;;;;;9.00;100.00;99379.03;5110015;28;20591;-79
2022/11/24 08:48:39;;;;;;;1.03;1.00;;;;;;;9.07;100.00;99379.09;5112295;28;20214;-78
2022/11/24 08:51:08;;;;;;;1.23;0.97;;;;;;;9.21;100.00;99385.25;5112261;28;20224;-79
2022/11/24 08:53:34;;;;;;;1.10;1.00;;;;;;;9.33;100.00;99394.84;5112381;28;20209;-79
2022/11/24 08:56:02;;;;;;;1.33;0.90;;;;;;;9.38;100.00;99367.31;5112149;28;20614;-81
2022/11/24 08:58:29;;;;;;;1.17;1.07;;;;;;;9.61;100.00;99402.00;5100735;28;20226;-82
2022/11/24 09:01:04;;;;;;;0.70;0.70;;;;;;;9.79;100.00;99402.13;5109571;28;20628;-80
2022/11/24 09:03:31;;;;;;;2.60;1.63;;;;;;;9.71;100.00;99410.69;5112231;28;20209;-80
2022/11/24 09:05:58;;;;;;;2.10;1.57;;;;;;;9.74;100.00;99413.28;5111793;28;20229;-82
2022/11/24 09:08:24;;;;;;;2.90;2.70;;;;;;;9.68;100.00;99424.47;5112103;28;20216;-80
2022/11/24 09:10:51;;;;;;;1.40;1.07;;;;;;;9.86;100.00;99434.97;5097843;28;20580;-77
2022/11/24 09:13:18;;;;;;;1.83;1.73;;;;;;;9.98;100.00;99433.34;5112028;28;20652;-79
2022/11/24 09:15:45;;;;;;;1.43;1.43;;;;;;;9.82;100.00;99419.41;5111492;28;20204;-80
2022/11/24 09:18:13;;;;;;;1.17;1.10;;;;;;;10.07;100.00;99443.75;5111932;28;20225;-80
2022/11/24 09:20:40;;;;;;;0.70;0.70;;;;;;;10.25;100.00;99444.75;5076434;28;20258;-80
2022/11/24 09:23:06;;;;;;;0.67;0.67;;;;;;;10.21;100.00;99453.38;5111980;28;20198;-80
2022/11/24 09:25:33;;;;;;;0.67;0.67;;;;;;;10.31;100.00;99449.97;5111917;28;20207;-79
2022/11/24 09:28:00;;;;;;;0.80;0.80;;;;;;;10.40;100.00;99482.84;5111838;28;20208;-80
2022/11/24 09:30:27;;;;;;;0.93;0.87;;;;;;;10.30;100.00;99486.25;5111798;28;20217;-81
2022/11/24 09:32:56;;;;;;;0.67;0.67;;;;;;;10.33;100.00;99505.28;5111587;28;20189;-80
2022/11/24 09:35:24;;;;;;;0.83;0.83;;;;;;;10.25;100.00;99499.16;5112064;28;20205;-80
2022/11/24 09:37:51;;;;;;;0.70;0.70;;;;;;;9.77;100.00;99497.06;5111535;28;20232;-80
2022/11/24 09:40:18;;;;;;;0.77;0.70;;;;;;;10.09;100.00;99530.97;5111776;28;20197;-80
2022/11/24 09:42:54;;;;;;;0.70;0.70;;;;;;;10.15;100.00;99533.63;5111642;28;20205;-80
2022/11/24 09:45:28;;;;;;;0.50;0.50;;;;;;;9.85;100.00;99517.81;5112212;28;20189;-79
2022/11/24 09:48:01;;;;;;;0.67;0.67;;;;;;;9.70;100.00;99525.44;5105734;28;20204;-80
2022/11/24 09:50:32;;;;;;;0.60;0.60;;;;;;;9.71;100.00;99527.16;5101169;28;20242;-80
2022/11/24 09:53:06;;;;;;;1.27;1.00;;;;;;;9.50;100.00;99519.19;5111927;28;20751;-80
2022/11/24 09:55:40;;;;;;;0.67;0.63;;;;;;;9.58;100.00;99530.50;5111693;28;20212;-74
2022/11/24 09:58:17;;;;;;;0.87;0.87;;;;;;;9.67;100.00;99536.63;5111483;28;20234;-76
2022/11/24 10:00:45;;;;;;;0.80;0.80;;;;;;;9.70;100.00;99528.88;5093114;28;20198;-77
2022/11/24 10:03:19;;;;;;;0.90;0.90;;;;;;;9.68;100.00;99532.31;5094631;28;20202;-77
2022/11/24 10:05:50;;;;;;;0.73;0.73;;;;;;;9.60;100.00;99523.59;5104885;28;20232;-79
2022/11/24 10:08:31;;;;;;;1.33;0.87;;;;;;;9.53;100.00;99539.91;5099144;28;20767;-78
2022/11/24 10:11:01;;;;;;;0.90;0.90;;;;;;;9.37;100.00;99521.66;5093840;28;20673;-77
2022/11/24 10:13:45;;;;;;;0.70;0.70;;;;;;;9.48;100.00;99554.56;5107782;28;20198;-78
2022/11/24 10:16:20;;;;;;;0.70;0.70;;;;;;;9.62;100.00;99529.69;5102976;28;20197;-77
2022/11/24 10:19:00;;;;;;;0.70;0.70;;;;;;;9.63;100.00;99555.56;5110636;28;20207;-80
2022/11/24 10:21:47;;;;;;;1.10;1.00;;;;;;;9.53;100.00;99526.97;5110824;28;20201;-78
2022/11/24 10:24:34;;;;;;;0.90;0.87;;;;;;;9.63;100.00;99549.53;5107875;28;20212;-78
2022/11/24 10:27:03;;;;;;;1.17;1.10;;;;;;;9.36;100.00;99517.34;5065349;28;20689;-78
2022/11/24 10:29:37;;;;;;;1.17;0.90;;;;;;;9.67;100.00;99553.88;5104713;28;20259;-78
2022/11/24 10:32:13;;;;;;;1.10;1.07;;;;;;;9.60;100.00;99557.25;5103077;28;20207;-77
2022/11/24 10:34:43;;;;;;;0.77;0.77;;;;;;;9.52;100.00;99567.53;5108353;28;20224;-76
2022/11/24 10:37:17;;;;;;;0.70;0.70;;;;;;;9.37;100.00;99550.13;5067915;28;20197;-79
2022/11/24 10:39:52;;;;;;;2.47;1.23;;;;;;;9.43;100.00;99563.13;5111188;28;20209;-78
2022/11/24 10:42:24;;;;;;;0.80;0.80;;;;;;;9.39;100.00;99563.94;5101586;28;20205;-76
2022/11/24 10:45:00;;;;;;;0.60;0.60;;;;;;;9.42;100.00;99563.97;5104790;28;20197;-78
2022/11/24 10:47:27;;;;;;;1.80;0.87;;;;;;;9.25;100.00;99542.22;5114315;28;20323;-79
2022/11/24 10:49:58;;;;;;;0.80;0.80;;;;;;;9.46;100.00;99555.38;5107400;28;20202;-78
2022/11/24 10:52:28;;;;;;;0.80;0.80;;;;;;;9.12;100.00;99540.34;5104380;28;20206;-78
2022/11/24 10:54:58;;;;;;;0.70;0.70;;;;;;;9.13;100.00;99554.16;5111007;28;20677;-78
2022/11/24 10:57:30;;;;;;;1.00;0.83;;;;;;;9.17;100.00;99551.59;5110440;28;20230;-79
2022/11/24 10:59:57;;;;;;;0.60;0.60;;;;;;;9.30;100.00;99553.50;5104213;28;20208;-81
2022/11/24 11:02:33;;;;;;;0.70;0.70;;;;;;;9.51;100.00;99552.88;5100924;28;20202;-80
2022/11/24 11:05:28;;;;;;;0.60;0.60;;;;;;;9.57;100.00;99555.50;5099759;28;20236;-80
2022/11/24 11:10:50;;;;;;;0.70;0.70;;;;;;;9.74;100.00;99547.91;5082217;27;20562;-80
2022/11/24 11:13:28;;;;;;;0.80;0.80;;;;;;;9.68;100.00;99558.19;5066849;28;20202;-77
2022/11/24 11:15:56;;;;;;;0.70;0.70;;;;;;;9.85;100.00;99561.81;5065524;28;20198;-79
2022/11/24 11:18:30;;;;;;;0.80;0.80;;;;;;;9.95;100.00;99559.31;5065234;28;20203;-78
2022/11/24 11:21:00;;;;;;;0.70;0.70;;;;;;;9.90;100.00;99558.44;5066369;28;20195;-79
2022/11/24 11:23:30;;;;;;;0.97;0.97;;;;;;;9.91;100.00;99567.94;5067062;28;20603;-79
2022/11/24 11:26:29;;;;;;;0.60;0.60;;;;;;;9.96;100.00;99563.66;5066456;28;20252;-79
2022/11/24 11:29:02;;;;;;;0.77;0.77;;;;;;;10.00;100.00;99572.31;5067039;28;20191;-78
2022/11/24 11:31:31;;;;;;;0.70;0.70;;;;;;;9.87;100.00;99581.72;5067353;28;20666;-79
2022/11/24 11:34:01;;;;;;;0.80;0.80;;;;;;;9.93;100.00;99570.53;5067645;28;20202;-79
2022/11/24 11:36:31;;;;;;;0.87;0.87;;;;;;;10.17;100.00;99583.72;5047512;28;20601;-79
2022/11/24 11:38:58;;;;;;;0.70;0.70;;;;;;;10.11;100.00;99591.41;5068063;28;20621;-78
2022/11/24 11:41:30;;;;;;;0.60;0.60;;;;;;;10.12;100.00;99576.75;5067979;28;20191;-79
2022/11/24 11:44:08;;;;;;;0.80;0.80;;;;;;;10.12;100.00;99577.63;5067876;28;20281;-79
2022/11/24 11:46:35;;;;;;;0.70;0.70;;;;;;;10.06;100.00;99572.38;5067786;28;20194;-77